createdAt,value
2022-07-25T00:01:45.127Z,77550.16
2022-07-25T00:04:14.848Z,77548.16
2022-07-25T00:06:44.582Z,77550.16
2022-07-25T00:09:12.561Z,77570.38
2022-07-25T00:11:40.404Z,77562.28
2022-07-25T00:14:08.854Z,77568.34
2022-07-25T00:16:37.033Z,77578.44
2022-07-25T00:19:04.940Z,77608.75
2022-07-25T00:21:32.838Z,77582.50
2022-07-25T00:24:03.276Z,77616.84
2022-07-25T00:26:33.524Z,77651.19
2022-07-25T00:29:05.057Z,77663.31
2022-07-25T00:31:33.287Z,77679.47
2022-07-25T00:34:01.215Z,77661.28
2022-07-25T00:36:29.217Z,77671.38
2022-07-25T00:38:56.939Z,77681.50
2022-07-25T00:41:26.071Z,77707.75
2022-07-25T00:43:53.783Z,77729.97
2022-07-25T00:46:21.692Z,77734.03
2022-07-25T00:48:52.043Z,77760.28
2022-07-25T00:51:20.366Z,77711.81
2022-07-25T00:53:48.807Z,77756.25
2022-07-25T00:56:18.227Z,77792.63
2022-07-25T00:58:47.983Z,77764.34
2022-07-25T01:01:16.123Z,77812.81
2022-07-25T01:03:44.441Z,77804.75
2022-07-25T01:06:12.426Z,77837.06
2022-07-25T01:08:40.420Z,77871.41
2022-07-25T01:11:10.802Z,77865.34
2022-07-25T01:13:39.451Z,77837.06
2022-07-25T01:16:09.812Z,77865.34
2022-07-25T01:18:38.626Z,77853.22
2022-07-25T01:21:08.676Z,77849.19
2022-07-25T01:23:36.779Z,77853.22
2022-07-25T01:26:04.741Z,77873.44
2022-07-25T01:28:32.839Z,77881.53
2022-07-25T01:31:00.730Z,77881.53
2022-07-25T01:33:28.833Z,77893.66
2022-07-25T01:35:56.710Z,77877.47
2022-07-25T01:38:26.044Z,77909.81
2022-07-25T01:40:54.307Z,77901.72
2022-07-25T01:43:22.148Z,77889.59
2022-07-25T01:45:50.292Z,77917.91
2022-07-25T01:48:17.967Z,77901.72
2022-07-25T01:50:47.911Z,77934.06
2022-07-25T01:53:17.161Z,77990.63
2022-07-25T01:55:48.045Z,77982.56
2022-07-25T01:58:15.997Z,77966.38
2022-07-25T02:00:45.865Z,77978.50
2022-07-25T02:03:31.872Z,78000.75
2022-07-25T02:06:01.441Z,78018.94
2022-07-25T02:08:29.784Z,78010.84
2022-07-25T02:11:00.330Z,78018.94
2022-07-25T02:13:28.722Z,78027.00
2022-07-25T02:15:58.003Z,78022.97
2022-07-25T02:18:25.782Z,78051.25
2022-07-25T02:20:53.894Z,78039.13
2022-07-25T02:23:21.826Z,78065.41
2022-07-25T02:25:49.581Z,78063.38
2022-07-25T02:28:19.209Z,78087.63
2022-07-25T02:30:47.800Z,78073.47
2022-07-25T02:33:15.924Z,78077.53
2022-07-25T02:35:44.679Z,78079.53
2022-07-25T02:38:19.718Z,78103.78
2022-07-25T02:40:48.063Z,78115.91
2022-07-25T02:43:15.946Z,78140.16
2022-07-25T02:45:45.646Z,78160.38
2022-07-25T02:48:13.751Z,78156.31
2022-07-25T02:50:41.984Z,78172.50
2022-07-25T02:53:09.689Z,78156.31
2022-07-25T02:55:37.406Z,78140.16
2022-07-25T02:58:05.374Z,78156.31
2022-07-25T03:00:34.097Z,78136.13
2022-07-25T03:03:03.628Z,78128.03
2022-07-25T03:05:32.448Z,78172.50
2022-07-25T03:08:02.068Z,78186.63
2022-07-25T03:10:31.339Z,78172.50
2022-07-25T03:12:59.104Z,78164.41
2022-07-25T03:15:27.160Z,78160.38
2022-07-25T03:17:55.163Z,78156.31
2022-07-25T03:20:24.868Z,78176.53
2022-07-25T03:22:52.822Z,78146.22
2022-07-25T03:25:21.605Z,78174.50
2022-07-25T03:27:50.750Z,78130.06
2022-07-25T03:30:19.028Z,78156.31
2022-07-25T03:32:47.074Z,78164.41
2022-07-25T03:35:15.567Z,78144.19
2022-07-25T03:37:46.076Z,78152.28
2022-07-25T03:40:16.005Z,78095.72
2022-07-25T03:42:44.034Z,78128.03
2022-07-25T03:45:12.743Z,78103.78
2022-07-25T03:47:40.549Z,78101.78
2022-07-25T03:50:08.877Z,78075.50
2022-07-25T03:52:38.769Z,78075.50
2022-07-25T03:55:10.134Z,77994.69
2022-07-25T03:57:38.140Z,77984.56
2022-07-25T04:00:08.660Z,77887.59
2022-07-25T04:02:37.982Z,77760.28
2022-07-25T04:05:06.741Z,77639.06
2022-07-25T04:07:35.217Z,77649.16
2022-07-25T04:10:03.392Z,77659.25
2022-07-25T04:12:32.851Z,77683.50
2022-07-25T04:15:00.537Z,77711.81
2022-07-25T04:17:28.494Z,77618.84
2022-07-25T04:19:56.721Z,77618.84
2022-07-25T04:22:24.605Z,77584.50
2022-07-25T04:24:52.428Z,77554.22
2022-07-25T04:27:20.365Z,77566.31
2022-07-25T04:29:49.804Z,77538.03
2022-07-25T04:32:23.342Z,77424.91
2022-07-25T04:34:52.389Z,77356.22
2022-07-25T04:37:20.248Z,77214.78
2022-07-25T04:39:48.246Z,77085.50
2022-07-25T04:42:15.986Z,76984.50
2022-07-25T04:44:43.851Z,76936.00
2022-07-25T04:47:13.472Z,76936.00
2022-07-25T04:49:41.693Z,76919.84
2022-07-25T04:52:09.968Z,76875.41
2022-07-25T04:54:37.778Z,76804.72
2022-07-25T04:57:05.909Z,76653.22
2022-07-25T04:59:33.752Z,76459.28
2022-07-25T05:02:02.837Z,76404.75
2022-07-25T05:04:32.496Z,76285.59
2022-07-25T05:07:03.051Z,76043.22
2022-07-25T05:09:31.432Z,76063.44
2022-07-25T05:11:59.467Z,76008.91
2022-07-25T05:14:27.646Z,75990.72
2022-07-25T05:16:56.545Z,75889.75
2022-07-25T05:19:24.581Z,75776.66
2022-07-25T05:21:54.018Z,75770.59
2022-07-25T05:24:23.265Z,75667.59
2022-07-25T05:26:51.229Z,75665.56
2022-07-25T05:29:19.739Z,75538.34
2022-07-25T05:31:48.282Z,75324.31
2022-07-25T05:34:16.049Z,75243.53
2022-07-25T05:36:47.169Z,75195.06
2022-07-25T05:39:16.929Z,75067.88
2022-07-25T05:41:44.764Z,74896.25
2022-07-25T05:44:12.827Z,74682.22
2022-07-25T05:46:40.828Z,74448.03
2022-07-25T05:49:09.016Z,74385.44
2022-07-25T05:51:37.673Z,74234.03
2022-07-25T05:54:06.264Z,74324.88
2022-07-25T05:56:36.133Z,74373.34
2022-07-25T05:59:04.183Z,74048.31
2022-07-25T06:01:32.288Z,73709.22
2022-07-25T06:04:00.317Z,73632.50
2022-07-25T06:06:28.259Z,73810.13
2022-07-25T06:08:56.280Z,73830.31
2022-07-25T06:11:27.301Z,73628.47
2022-07-25T06:14:00.152Z,73321.69
2022-07-25T06:16:28.069Z,73309.56
2022-07-25T06:18:56.554Z,73267.19
2022-07-25T06:21:24.519Z,73289.41
2022-07-25T06:23:52.498Z,72998.78
2022-07-25T06:26:20.412Z,72869.63
2022-07-25T06:28:48.842Z,72645.63
2022-07-25T06:31:18.705Z,72587.09
2022-07-25T06:33:47.273Z,72591.16
2022-07-25T06:36:15.191Z,72234.00
2022-07-25T06:38:43.010Z,72147.22
2022-07-25T06:41:15.380Z,72183.56
2022-07-25T06:43:43.457Z,71485.50
2022-07-25T06:46:11.484Z,71283.75
2022-07-25T06:48:40.777Z,71328.13
2022-07-25T06:51:08.957Z,71550.03
2022-07-25T06:53:39.814Z,70961.03
2022-07-25T06:56:07.829Z,70989.25
2022-07-25T06:58:35.943Z,70743.19
2022-07-25T07:01:03.985Z,70378.13
2022-07-25T07:03:32.716Z,69888.06
2022-07-25T07:06:02.271Z,70170.41
2022-07-25T07:08:30.468Z,70053.44
2022-07-25T07:10:58.408Z,69644.09
2022-07-25T07:13:26.363Z,69815.47
2022-07-25T07:15:54.211Z,70440.66
2022-07-25T07:18:22.889Z,70051.41
2022-07-25T07:20:51.819Z,69795.31
2022-07-25T07:23:21.305Z,69119.84
2022-07-25T07:25:49.526Z,68581.59
2022-07-25T07:28:17.628Z,68259.06
2022-07-25T07:31:15.268Z,68343.72
2022-07-25T07:33:33.977Z,68601.75
2022-07-25T07:36:02.070Z,68728.75
2022-07-25T07:38:31.197Z,68728.75
2022-07-25T07:40:59.143Z,68621.91
2022-07-25T07:43:29.885Z,69071.47
2022-07-25T07:46:01.386Z,69000.91
2022-07-25T07:48:30.468Z,68666.25
2022-07-25T07:50:58.506Z,68587.63
2022-07-25T07:53:46.990Z,68142.16
2022-07-25T07:56:16.556Z,68783.16
2022-07-25T07:58:44.422Z,69041.22
2022-07-25T08:01:12.652Z,68950.50
2022-07-25T08:03:40.514Z,68545.28
2022-07-25T08:06:08.638Z,67473.00
2022-07-25T08:08:36.320Z,67477.03
2022-07-25T08:11:04.113Z,67275.50
2022-07-25T08:13:35.254Z,67267.44
2022-07-25T08:16:04.524Z,68061.53
2022-07-25T08:18:34.236Z,68662.22
2022-07-25T08:21:04.228Z,68353.78
2022-07-25T08:23:33.675Z,68869.84
2022-07-25T08:26:02.423Z,68115.94
2022-07-25T08:28:30.514Z,68085.72
2022-07-25T08:31:00.314Z,67795.47
2022-07-25T08:33:28.600Z,67702.75
2022-07-25T08:35:58.994Z,67581.84
2022-07-25T08:38:29.680Z,66892.63
2022-07-25T08:41:00.617Z,67317.84
2022-07-25T08:43:33.013Z,66924.88
2022-07-25T08:46:03.735Z,66576.28
2022-07-25T08:48:31.667Z,67009.50
2022-07-25T08:51:01.317Z,66965.19
2022-07-25T08:53:33.330Z,67061.91
2022-07-25T08:56:05.394Z,67035.72
2022-07-25T08:58:38.345Z,67541.53
2022-07-25T09:01:08.375Z,66691.16
2022-07-25T09:03:42.718Z,66687.13
2022-07-25T09:06:19.417Z,66870.47
2022-07-25T09:08:54.862Z,67164.69
2022-07-25T09:11:32.891Z,67142.50
2022-07-25T09:14:08.314Z,67509.28
2022-07-25T09:16:44.729Z,67606.03
2022-07-25T09:19:16.843Z,67309.78
2022-07-25T09:21:46.550Z,67884.16
2022-07-25T09:24:17.884Z,68025.25
2022-07-25T09:26:51.224Z,67577.81
2022-07-25T09:29:21.860Z,66989.38
2022-07-25T09:31:52.662Z,66791.88
2022-07-25T09:34:37.895Z,66606.53
2022-07-25T09:37:07.935Z,66840.25
2022-07-25T09:39:46.436Z,66403.03
2022-07-25T09:42:19.843Z,66703.22
2022-07-25T09:45:03.080Z,66519.88
2022-07-25T09:47:33.580Z,66941.00
2022-07-25T09:50:04.280Z,66268.03
2022-07-25T09:52:33.913Z,66675.03
2022-07-25T09:55:04.069Z,66340.56
2022-07-25T09:57:34.862Z,66133.06
2022-07-25T10:00:03.259Z,66618.59
2022-07-25T10:02:44.815Z,67106.25
2022-07-25T10:05:16.627Z,68307.44
2022-07-25T10:07:48.751Z,67841.81
2022-07-25T10:10:26.526Z,68859.78
2022-07-25T10:13:11.448Z,68678.34
2022-07-25T10:15:47.662Z,67340.00
2022-07-25T10:18:21.228Z,67259.38
2022-07-25T10:20:50.643Z,67045.78
2022-07-25T10:23:24.335Z,67442.78
2022-07-25T10:26:03.688Z,67813.59
2022-07-25T10:28:40.532Z,68543.28
2022-07-25T10:31:24.345Z,68128.03
2022-07-25T10:33:56.522Z,68771.06
2022-07-25T10:36:25.835Z,69093.66
2022-07-25T10:38:58.040Z,68767.03
2022-07-25T10:41:30.089Z,68251.00
2022-07-25T10:44:02.779Z,68605.78
2022-07-25T10:46:32.800Z,68702.53
2022-07-25T10:49:04.284Z,68634.00
2022-07-25T10:51:39.455Z,68255.03
2022-07-25T10:54:19.508Z,68279.22
2022-07-25T10:56:56.361Z,68472.72
2022-07-25T10:59:30.170Z,68384.03
2022-07-25T11:01:58.777Z,68329.59
2022-07-25T11:04:28.471Z,68456.59
2022-07-25T11:06:57.115Z,68484.81
2022-07-25T11:09:27.867Z,68073.63
2022-07-25T11:11:57.958Z,67978.88
2022-07-25T11:14:31.261Z,68242.94
2022-07-25T11:17:10.742Z,67960.75
2022-07-25T11:19:42.965Z,67918.41
2022-07-25T11:22:10.921Z,67811.59
2022-07-25T11:24:40.969Z,67932.53
2022-07-25T11:27:13.249Z,68474.75
2022-07-25T11:29:42.146Z,68122.00
2022-07-25T11:32:13.291Z,68234.88
2022-07-25T11:34:44.835Z,68569.50
2022-07-25T11:37:15.657Z,67819.66
2022-07-25T11:39:47.149Z,67646.31
2022-07-25T11:42:17.425Z,67535.47
2022-07-25T11:44:48.097Z,67350.06
2022-07-25T11:47:28.346Z,67281.56
2022-07-25T11:50:00.899Z,67140.50
2022-07-25T11:52:31.154Z,66872.50
2022-07-25T11:55:01.414Z,67362.16
2022-07-25T11:57:31.285Z,67424.63
2022-07-25T12:00:01.288Z,67708.81
2022-07-25T12:02:31.666Z,67134.44
2022-07-25T12:05:02.949Z,67261.41
2022-07-25T12:07:41.880Z,67176.75
2022-07-25T12:10:12.712Z,67215.06
2022-07-25T12:12:49.973Z,67545.56
2022-07-25T12:15:23.241Z,67352.09
2022-07-25T12:17:52.175Z,66642.78
2022-07-25T12:20:24.309Z,66264.00
2022-07-25T12:22:54.530Z,66461.44
2022-07-25T12:25:26.404Z,66503.75
2022-07-25T12:27:59.092Z,67082.06
2022-07-25T12:30:27.915Z,67184.81
2022-07-25T12:32:56.243Z,67158.63
2022-07-25T12:35:26.609Z,67436.72
2022-07-25T12:37:55.122Z,67972.84
2022-07-25T12:40:23.995Z,68130.06
2022-07-25T12:42:52.148Z,68329.59
2022-07-25T12:45:20.143Z,67930.50
2022-07-25T12:47:49.771Z,68057.50
2022-07-25T12:50:19.270Z,67986.94
2022-07-25T12:52:49.150Z,68150.22
2022-07-25T12:55:19.502Z,67765.25
2022-07-25T12:57:48.049Z,67259.38
2022-07-25T13:00:18.809Z,67932.53
2022-07-25T13:02:46.954Z,68013.16
2022-07-25T13:05:15.245Z,68224.78
2022-07-25T13:07:43.077Z,68271.16
2022-07-25T13:10:12.846Z,68124.00
2022-07-25T13:12:40.589Z,67694.69
2022-07-25T13:15:09.895Z,68113.94
2022-07-25T13:17:37.967Z,67730.97
2022-07-25T13:20:06.636Z,67904.31
2022-07-25T13:22:34.633Z,68273.16
2022-07-25T13:25:02.536Z,68468.69
2022-07-25T13:27:31.818Z,68232.84
2022-07-25T13:29:59.654Z,68287.28
2022-07-25T13:32:28.543Z,67483.09
2022-07-25T13:34:56.736Z,67311.78
2022-07-25T13:37:24.547Z,67196.91
2022-07-25T13:39:52.608Z,67074.00
2022-07-25T13:42:20.535Z,67773.28
2022-07-25T13:44:49.923Z,68682.38
2022-07-25T13:47:17.916Z,68676.31
2022-07-25T13:49:45.801Z,68513.03
2022-07-25T13:52:13.717Z,68382.00
2022-07-25T13:54:41.685Z,68097.81
2022-07-25T13:57:10.743Z,68319.53
2022-07-25T13:59:38.542Z,67997.03
2022-07-25T14:02:07.946Z,67279.53
2022-07-25T14:04:36.188Z,67142.50
2022-07-25T14:07:04.103Z,66941.00
2022-07-25T14:09:31.909Z,67876.09
2022-07-25T14:12:00.114Z,68611.81
2022-07-25T14:14:28.110Z,69099.69
2022-07-25T14:16:56.270Z,68948.50
2022-07-25T14:19:25.915Z,69200.50
2022-07-25T14:21:53.745Z,68803.34
2022-07-25T14:24:21.725Z,69105.75
2022-07-25T14:26:50.309Z,68412.25
2022-07-25T14:29:18.301Z,68593.69
2022-07-25T14:31:46.347Z,68408.22
2022-07-25T14:34:15.655Z,68754.94
2022-07-25T14:36:47.797Z,69133.97
2022-07-25T14:39:17.074Z,69133.97
2022-07-25T14:41:45.076Z,69416.25
2022-07-25T14:44:13.595Z,69629.97
2022-07-25T14:46:43.031Z,69448.50
2022-07-25T14:49:13.455Z,69629.97
2022-07-25T14:51:45.366Z,70176.44
2022-07-25T14:54:13.145Z,70023.19
2022-07-25T14:56:41.354Z,69831.63
2022-07-25T14:59:09.795Z,69752.97
2022-07-25T15:01:38.884Z,69658.19
2022-07-25T15:04:07.203Z,69750.97
2022-07-25T15:06:35.341Z,69676.34
2022-07-25T15:09:05.531Z,69980.84
2022-07-25T15:11:34.579Z,69718.69
2022-07-25T15:14:02.491Z,69537.22
2022-07-25T15:16:31.225Z,69926.41
2022-07-25T15:19:15.943Z,69932.44
2022-07-25T15:21:44.835Z,70150.22
2022-07-25T15:24:15.612Z,70208.72
2022-07-25T15:26:44.142Z,70787.56
2022-07-25T15:29:13.562Z,70614.09
2022-07-25T15:31:41.416Z,70503.16
2022-07-25T15:34:09.245Z,70424.50
2022-07-25T15:36:37.216Z,70553.59
2022-07-25T18:48:42.044Z,76140.19
2022-07-25T18:51:09.925Z,76192.69
2022-07-25T18:53:38.332Z,76188.66
2022-07-25T18:56:07.600Z,76212.88
2022-07-25T18:58:36.760Z,76196.72
2022-07-25T19:01:05.230Z,76220.97
2022-07-25T19:03:34.948Z,76277.50
2022-07-25T19:06:04.555Z,76313.88
2022-07-25T19:08:34.224Z,76332.06
2022-07-25T19:11:02.090Z,76340.13
2022-07-25T19:13:48.832Z,76370.44
2022-07-25T19:16:18.133Z,76418.91
2022-07-25T19:18:46.638Z,76426.97
2022-07-25T19:21:16.822Z,76447.19
2022-07-25T19:23:50.436Z,76525.97
2022-07-25T19:26:19.715Z,76570.38
2022-07-25T19:28:48.334Z,76592.59
2022-07-25T19:31:16.671Z,76628.97
2022-07-25T19:33:45.971Z,76633.00
2022-07-25T19:36:15.498Z,76653.22
2022-07-25T19:38:43.810Z,76663.31
2022-07-25T19:41:12.102Z,76649.16
2022-07-25T19:43:40.010Z,76709.78
2022-07-25T19:46:07.809Z,76709.78
2022-07-25T19:48:35.623Z,76705.72
2022-07-25T19:51:03.347Z,76693.59
2022-07-25T19:53:33.114Z,76742.09
2022-07-25T19:56:01.380Z,76725.94
2022-07-25T19:58:29.420Z,76750.16
2022-07-25T20:00:57.328Z,76754.22
2022-07-25T20:03:25.387Z,76742.09
2022-07-25T20:05:53.712Z,76734.00
2022-07-25T20:08:21.626Z,76693.59
2022-07-25T20:10:50.823Z,76798.66
2022-07-25T20:13:18.771Z,76830.97
2022-07-25T20:15:47.101Z,76818.84
2022-07-25T20:18:19.804Z,76814.81
2022-07-25T20:20:48.252Z,76835.00
2022-07-25T20:23:16.775Z,76863.28
2022-07-25T20:25:45.118Z,76843.09
2022-07-25T20:28:14.304Z,76810.78
2022-07-25T20:30:42.714Z,76814.81
2022-07-25T20:33:10.860Z,76786.53
2022-07-25T20:35:39.428Z,76839.03
2022-07-25T20:38:09.967Z,76863.28
2022-07-25T20:40:38.852Z,76867.31
2022-07-25T20:43:09.515Z,76887.53
2022-07-25T20:45:40.295Z,76948.13
2022-07-25T20:48:08.414Z,76972.38
2022-07-25T20:50:38.452Z,77002.69
2022-07-25T20:53:07.089Z,76984.50
2022-07-25T20:55:35.590Z,77014.78
2022-07-25T20:58:04.550Z,77041.06
2022-07-25T21:00:32.977Z,76992.56
2022-07-25T21:03:02.574Z,77004.69
2022-07-25T21:05:30.667Z,77028.94
2022-07-25T21:07:59.061Z,77024.91
2022-07-25T21:10:27.214Z,77065.31
2022-07-25T21:12:56.719Z,77065.31
2022-07-25T21:15:25.132Z,77055.19
2022-07-25T21:17:53.255Z,77099.63
2022-07-25T21:20:23.085Z,77099.63
2022-07-25T21:22:51.635Z,77123.88
2022-07-25T21:25:19.861Z,77198.63
2022-07-25T21:27:47.846Z,77206.72
2022-07-25T21:30:15.966Z,77170.34
2022-07-25T21:32:45.049Z,77216.81
2022-07-25T21:35:13.621Z,77220.84
2022-07-25T21:37:43.550Z,77218.84
2022-07-25T21:40:11.869Z,77239.03
2022-07-25T21:42:40.146Z,77239.03
2022-07-25T21:45:09.151Z,77275.41
2022-07-25T21:47:36.897Z,77275.41
2022-07-25T21:50:24.342Z,77299.66
2022-07-25T21:52:54.947Z,77368.34
2022-07-25T21:55:23.429Z,77327.94
2022-07-25T21:57:52.433Z,77396.63
2022-07-25T22:00:21.981Z,77344.09
2022-07-25T22:02:49.928Z,77382.47
2022-07-25T22:05:18.663Z,77404.69
2022-07-25T22:07:48.852Z,77404.69
2022-07-25T22:10:20.666Z,77414.81
2022-07-25T22:12:49.579Z,77412.78
2022-07-25T22:15:18.167Z,77455.22
2022-07-25T22:17:49.741Z,77465.31
2022-07-25T22:20:19.654Z,77467.31
2022-07-25T22:22:48.476Z,77485.50
2022-07-25T22:25:18.892Z,77469.34
2022-07-25T22:27:46.622Z,77505.72
2022-07-25T22:30:19.204Z,77485.50
2022-07-25T22:32:48.172Z,77477.44
2022-07-25T22:35:16.585Z,77511.78
2022-07-25T22:37:45.078Z,77461.25
2022-07-25T22:40:16.541Z,77493.59
2022-07-25T22:42:45.818Z,77546.13
2022-07-25T22:45:13.763Z,77505.72
2022-07-25T22:47:41.872Z,77497.63
2022-07-25T22:50:11.560Z,77511.78
2022-07-25T22:52:39.566Z,77519.84
2022-07-25T22:55:10.165Z,77497.63
2022-07-25T22:57:38.561Z,77531.97
2022-07-25T23:00:12.403Z,77566.31
2022-07-25T23:02:40.499Z,77542.09
2022-07-25T23:05:09.437Z,77570.38
2022-07-25T23:07:37.470Z,77554.22
2022-07-25T23:10:06.654Z,77558.25
2022-07-25T23:12:34.380Z,77507.75
2022-07-25T23:15:02.247Z,77525.91
2022-07-25T23:17:31.702Z,77505.72
2022-07-25T23:19:59.793Z,77489.56
2022-07-25T23:22:29.038Z,77511.78
2022-07-25T23:24:59.475Z,77562.28
2022-07-25T23:27:28.329Z,77503.69
2022-07-25T23:30:01.448Z,77457.22
2022-07-25T23:32:29.267Z,77525.91
2022-07-25T23:34:58.512Z,77542.09
2022-07-25T23:37:26.945Z,77473.38
2022-07-25T23:39:54.757Z,77402.69
2022-07-25T23:42:22.444Z,77368.34
2022-07-25T23:44:50.395Z,77214.78
2022-07-25T23:47:23.894Z,77420.88
2022-07-25T23:49:54.874Z,77190.56
2022-07-25T23:52:24.007Z,77138.03
2022-07-25T23:54:51.914Z,77174.38
2022-07-25T23:57:19.789Z,77364.28
2022-07-25T23:59:47.579Z,77404.69
